sensor_id;sensor_type;location;lat;lon;timestamp;pressure;altitude;pressure_sealevel;temperature;humidity
68320;BME280;55168;51.120;17.024;2022-12-29T00:00:00;99870;;;6.5;100.0
68320;BME280;55168;51.120;17.024;2022-12-29T00:01:00;99870;;;6.5;100.0
68320;BME280;55168;51.120;17.024;2022-12-29T00:02:00;99870;;;6.5;100.0
68320;BME280;55168;51.120;17.024;2022-12-29T00:03:00;99880;;;6.5;100.0
68320;BME280;55168;51.120;17.024;2022-12-29T00:04:00;99880;;;6.5;100.0
68320;BME280;55168;51.120;17.024;2022-12-29T00:05:00;99870;;;6.4;100.0
68320;BME280;55168;51.120;17.024;2022-12-29T00:06:00;99870;;;6.4;100.0
68320;BME280;55168;51.120;17.024;2022-12-29T00:07:00;99880;;;6.4;100.0
68320;BME280;55168;51.120;17.024;2022-12-29T00:08:00;99870;;;6.3;100.0
68320;BME280;55168;51.120;17.024;2022-12-29T00:09:00;99870;;;6.3;100.0
68320;BME280;55168;51.120;17.024;2022-12-29T00:10:00;99870;;;6.2;100.0
68320;BME280;55168;51.120;17.024;2022-12-29T00:11:00;99860;;;6.2;100.0
68320;BME280;55168;51.120;17.024;2022-12-29T00:12:00;99870;;;6.2;100.0
68320;BME280;55168;51.120;17.024;2022-12-29T00:13:00;99870;;;6.2;100.0
68320;BME280;55168;51.120;17.024;2022-12-29T00:14:00;99860;;;6.2;100.0
68320;BME280;55168;51.120;17.024;2022-12-29T00:15:00;99850;;;6.1;100.0
68320;BME280;55168;51.120;17.024;2022-12-29T00:16:00;99860;;;6.1;100.0
68320;BME280;55168;51.120;17.024;2022-12-29T00:17:00;99850;;;6.1;100.0
68320;BME280;55168;51.120;17.024;2022-12-29T00:18:00;99850;;;6.0;100.0
68320;BME280;55168;51.120;17.024;2022-12-29T00:19:00;99850;;;6.0;100.0
68320;BME280;55168;51.120;17.024;2022-12-29T00:20:00;99840;;;6.0;100.0
68320;BME280;55168;51.120;17.024;2022-12-29T00:21:00;99840;;;5.9;100.0
68320;BME280;55168;51.120;17.024;2022-12-29T00:22:00;99840;;;5.9;100.0
68320;BME280;55168;51.120;17.024;2022-12-29T00:23:00;99840;;;5.9;100.0
68320;BME280;55168;51.120;17.024;2022-12-29T00:24:00;99840;;;5.9;100.0
68320;BME280;55168;51.120;17.024;2022-12-29T00:25:00;99840;;;5.9;100.0
68320;BME280;55168;51.120;17.024;2022-12-29T00:26:02;99850;;;5.8;100.0
68320;BME280;55168;51.120;17.024;2022-12-29T00:28:00;99850;;;5.8;100.0
68320;BME280;55168;51.120;17.024;2022-12-29T00:29:00;99850;;;5.8;100.0
68320;BME280;55168;51.120;17.024;2022-12-29T00:30:00;99850;;;5.8;100.0
68320;BME280;55168;51.120;17.024;2022-12-29T00:31:00;99850;;;5.8;100.0
68320;BME280;55168;51.120;17.024;2022-12-29T00:32:00;99850;;;5.8;100.0
68320;BME280;55168;51.120;17.024;2022-12-29T00:33:00;99840;;;5.8;100.0
68320;BME280;55168;51.120;17.024;2022-12-29T00:34:00;99840;;;5.8;100.0
68320;BME280;55168;51.120;17.024;2022-12-29T00:35:00;99840;;;5.8;100.0
68320;BME280;55168;51.120;17.024;2022-12-29T00:37:00;99830;;;5.8;100.0
68320;BME280;55168;51.120;17.024;2022-12-29T00:38:02;99830;;;5.8;100.0
68320;BME280;55168;51.120;17.024;2022-12-29T00:39:02;99840;;;5.8;100.0
68320;BME280;55168;51.120;17.024;2022-12-29T00:40:00;99830;;;5.8;100.0
68320;BME280;55168;51.120;17.024;2022-12-29T00:41:00;99830;;;5.7;100.0
68320;BME280;55168;51.120;17.024;2022-12-29T00:42:07;99820;;;5.8;100.0
68320;BME280;55168;51.120;17.024;2022-12-29T00:43:00;99820;;;5.7;100.0
68320;BME280;55168;51.120;17.024;2022-12-29T00:44:00;99820;;;5.7;100.0
68320;BME280;55168;51.120;17.024;2022-12-29T00:45:00;99820;;;5.7;100.0
68320;BME280;55168;51.120;17.024;2022-12-29T00:46:00;99820;;;5.7;100.0
68320;BME280;55168;51.120;17.024;2022-12-29T00:47:00;99810;;;5.7;100.0
68320;BME280;55168;51.120;17.024;2022-12-29T00:48:00;99810;;;5.7;100.0
68320;BME280;55168;51.120;17.024;2022-12-29T00:49:00;99810;;;5.7;100.0
68320;BME280;55168;51.120;17.024;2022-12-29T00:50:00;99810;;;5.7;100.0
68320;BME280;55168;51.120;17.024;2022-12-29T00:51:00;99810;;;5.7;100.0
68320;BME280;55168;51.120;17.024;2022-12-29T00:52:01;99810;;;5.6;100.0
68320;BME280;55168;51.120;17.024;2022-12-29T00:53:00;99810;;;5.6;100.0
68320;BME280;55168;51.120;17.024;2022-12-29T00:54:00;99800;;;5.6;100.0
68320;BME280;55168;51.120;17.024;2022-12-29T00:55:00;99800;;;5.6;100.0
68320;BME280;55168;51.120;17.024;2022-12-29T00:56:00;99800;;;5.6;100.0
68320;BME280;55168;51.120;17.024;2022-12-29T00:57:00;99810;;;5.6;100.0
68320;BME280;55168;51.120;17.024;2022-12-29T00:58:00;99800;;;5.6;100.0
68320;BME280;55168;51.120;17.024;2022-12-29T00:59:01;99800;;;5.6;100.0
68320;BME280;55168;51.120;17.024;2022-12-29T01:00:00;99800;;;5.6;100.0
68320;BME280;55168;51.120;17.024;2022-12-29T01:01:00;99800;;;5.6;100.0
68320;BME280;55168;51.120;17.024;2022-12-29T01:02:00;99800;;;5.6;100.0
68320;BME280;55168;51.120;17.024;2022-12-29T01:03:00;99800;;;5.6;100.0
68320;BME280;55168;51.120;17.024;2022-12-29T01:04:00;99790;;;5.6;100.0
68320;BME280;55168;51.120;17.024;2022-12-29T01:05:00;99790;;;5.6;100.0
68320;BME280;55168;51.120;17.024;2022-12-29T01:06:00;99800;;;5.5;100.0
68320;BME280;55168;51.120;17.024;2022-12-29T01:07:00;99790;;;5.6;100.0
68320;BME280;55168;51.120;17.024;2022-12-29T01:08:00;99790;;;5.6;100.0
68320;BME280;55168;51.120;17.024;2022-12-29T01:09:00;99780;;;5.6;100.0
68320;BME280;55168;51.120;17.024;2022-12-29T01:10:00;99790;;;5.6;100.0
68320;BME280;55168;51.120;17.024;2022-12-29T01:11:04;99790;;;5.6;100.0
68320;BME280;55168;51.120;17.024;2022-12-29T01:12:00;99790;;;5.6;100.0
68320;BME280;55168;51.120;17.024;2022-12-29T01:13:00;99790;;;5.6;100.0
68320;BME280;55168;51.120;17.024;2022-12-29T01:14:00;99790;;;5.6;100.0
68320;BME280;55168;51.120;17.024;2022-12-29T01:15:00;99790;;;5.5;100.0
68320;BME280;55168;51.120;17.024;2022-12-29T01:16:00;99790;;;5.5;100.0
68320;BME280;55168;51.120;17.024;2022-12-29T01:17:00;99790;;;5.5;100.0
68320;BME280;55168;51.120;17.024;2022-12-29T01:18:00;99790;;;5.5;100.0
68320;BME280;55168;51.120;17.024;2022-12-29T01:19:00;99790;;;5.5;100.0
68320;BME280;55168;51.120;17.024;2022-12-29T01:20:00;99790;;;5.5;100.0
68320;BME280;55168;51.120;17.024;2022-12-29T01:21:00;99790;;;5.5;100.0
68320;BME280;55168;51.120;17.024;2022-12-29T01:22:00;99790;;;5.5;100.0
68320;BME280;55168;51.120;17.024;2022-12-29T01:23:00;99790;;;5.4;100.0
68320;BME280;55168;51.120;17.024;2022-12-29T01:24:00;99790;;;5.4;100.0
68320;BME280;55168;51.120;17.024;2022-12-29T01:25:00;99790;;;5.4;100.0
68320;BME280;55168;51.120;17.024;2022-12-29T01:26:16;99780;;;5.4;100.0
68320;BME280;55168;51.120;17.024;2022-12-29T01:27:00;99780;;;5.4;100.0
68320;BME280;55168;51.120;17.024;2022-12-29T01:28:00;99780;;;5.4;100.0
68320;BME280;55168;51.120;17.024;2022-12-29T01:29:00;99780;;;5.4;100.0
68320;BME280;55168;51.120;17.024;2022-12-29T01:30:00;99780;;;5.5;100.0
68320;BME280;55168;51.120;17.024;2022-12-29T01:31:00;99780;;;5.5;100.0
68320;BME280;55168;51.120;17.024;2022-12-29T01:32:00;99780;;;5.6;100.0
68320;BME280;55168;51.120;17.024;2022-12-29T01:33:00;99770;;;5.6;100.0
68320;BME280;55168;51.120;17.024;2022-12-29T01:34:00;99770;;;5.6;100.0
68320;BME280;55168;51.120;17.024;2022-12-29T01:35:00;99780;;;5.6;100.0
68320;BME280;55168;51.120;17.024;2022-12-29T01:36:02;99780;;;5.6;100.0
68320;BME280;55168;51.120;17.024;2022-12-29T01:37:00;99780;;;5.6;100.0
68320;BME280;55168;51.120;17.024;2022-12-29T01:38:00;99780;;;5.7;100.0
68320;BME280;55168;51.120;17.024;2022-12-29T01:39:00;99770;;;5.7;100.0
68320;BME280;55168;51.120;17.024;2022-12-29T01:40:00;99780;;;5.7;100.0
68320;BME280;55168;51.120;17.024;2022-12-29T01:41:00;99780;;;5.7;100.0
68320;BME280;55168;51.120;17.024;2022-12-29T01:42:00;99770;;;5.7;100.0
68320;BME280;55168;51.120;17.024;2022-12-29T01:43:00;99770;;;5.8;100.0
68320;BME280;55168;51.120;17.024;2022-12-29T01:44:00;99770;;;5.8;100.0
68320;BME280;55168;51.120;17.024;2022-12-29T01:45:01;99770;;;5.8;100.0
68320;BME280;55168;51.120;17.024;2022-12-29T01:46:00;99770;;;5.8;100.0
68320;BME280;55168;51.120;17.024;2022-12-29T01:47:00;99770;;;5.8;100.0
68320;BME280;55168;51.120;17.024;2022-12-29T01:48:01;99770;;;5.9;100.0
68320;BME280;55168;51.120;17.024;2022-12-29T01:50:02;99770;;;5.9;100.0
68320;BME280;55168;51.120;17.024;2022-12-29T01:51:00;99770;;;5.8;100.0
68320;BME280;55168;51.120;17.024;2022-12-29T01:52:01;99770;;;5.8;100.0
68320;BME280;55168;51.120;17.024;2022-12-29T01:53:01;99770;;;5.8;100.0
68320;BME280;55168;51.120;17.024;2022-12-29T01:54:00;99760;;;5.9;100.0
68320;BME280;55168;51.120;17.024;2022-12-29T01:55:00;99760;;;5.9;100.0
68320;BME280;55168;51.120;17.024;2022-12-29T01:56:01;99750;;;5.9;100.0
68320;BME280;55168;51.120;17.024;2022-12-29T01:57:01;99750;;;6.0;100.0
68320;BME280;55168;51.120;17.024;2022-12-29T01:58:01;99750;;;6.0;100.0
68320;BME280;55168;51.120;17.024;2022-12-29T01:59:01;99740;;;6.0;100.0
68320;BME280;55168;51.120;17.024;2022-12-29T02:00:01;99740;;;6.0;100.0
68320;BME280;55168;51.120;17.024;2022-12-29T02:01:00;99740;;;6.0;100.0
68320;BME280;55168;51.120;17.024;2022-12-29T02:02:00;99740;;;6.0;100.0
68320;BME280;55168;51.120;17.024;2022-12-29T02:03:00;99740;;;6.0;100.0
68320;BME280;55168;51.120;17.024;2022-12-29T02:04:00;99740;;;6.0;100.0
68320;BME280;55168;51.120;17.024;2022-12-29T02:05:01;99730;;;6.0;100.0
68320;BME280;55168;51.120;17.024;2022-12-29T02:06:09;99730;;;6.0;100.0
68320;BME280;55168;51.120;17.024;2022-12-29T02:07:01;99730;;;6.0;100.0
68320;BME280;55168;51.120;17.024;2022-12-29T02:08:00;99730;;;6.0;100.0
68320;BME280;55168;51.120;17.024;2022-12-29T02:09:00;99730;;;6.0;100.0
68320;BME280;55168;51.120;17.024;2022-12-29T02:10:00;99730;;;6.0;100.0
68320;BME280;55168;51.120;17.024;2022-12-29T02:11:00;99730;;;6.1;100.0
68320;BME280;55168;51.120;17.024;2022-12-29T02:12:00;99720;;;6.1;100.0
68320;BME280;55168;51.120;17.024;2022-12-29T02:13:00;99720;;;6.0;100.0
68320;BME280;55168;51.120;17.024;2022-12-29T02:14:00;99730;;;6.0;100.0
68320;BME280;55168;51.120;17.024;2022-12-29T02:15:00;99720;;;6.1;100.0
68320;BME280;55168;51.120;17.024;2022-12-29T02:17:04;99720;;;6.0;100.0
68320;BME280;55168;51.120;17.024;2022-12-29T02:18:03;99720;;;6.0;100.0
68320;BME280;55168;51.120;17.024;2022-12-29T02:19:06;99720;;;6.0;100.0
68320;BME280;55168;51.120;17.024;2022-12-29T02:20:06;99720;;;6.0;100.0
68320;BME280;55168;51.120;17.024;2022-12-29T02:21:36;99720;;;6.0;100.0
68320;BME280;55168;51.120;17.024;2022-12-29T02:23:07;99720;;;6.1;100.0
68320;BME280;55168;51.120;17.024;2022-12-29T02:26:05;99720;;;6.0;100.0
68320;BME280;55168;51.120;17.024;2022-12-29T02:27:04;99720;;;6.0;100.0
68320;BME280;55168;51.120;17.024;2022-12-29T02:30:03;99710;;;6.1;100.0
68320;BME280;55168;51.120;17.024;2022-12-29T02:32:02;99710;;;6.0;100.0
68320;BME280;55168;51.120;17.024;2022-12-29T02:35:01;99720;;;6.0;100.0
68320;BME280;55168;51.120;17.024;2022-12-29T02:36:04;99710;;;6.0;100.0
68320;BME280;55168;51.120;17.024;2022-12-29T02:40:02;99710;;;6.0;100.0
68320;BME280;55168;51.120;17.024;2022-12-29T02:41:05;99710;;;6.0;100.0
68320;BME280;55168;51.120;17.024;2022-12-29T02:42:09;99710;;;5.9;100.0
68320;BME280;55168;51.120;17.024;2022-12-29T02:44:16;99700;;;5.9;100.0
68320;BME280;55168;51.120;17.024;2022-12-29T02:45:02;99700;;;6.0;100.0
68320;BME280;55168;51.120;17.024;2022-12-29T02:46:03;99700;;;5.9;100.0
68320;BME280;55168;51.120;17.024;2022-12-29T02:47:00;99700;;;6.0;100.0
68320;BME280;55168;51.120;17.024;2022-12-29T02:48:18;99700;;;5.9;100.0
68320;BME280;55168;51.120;17.024;2022-12-29T02:50:08;99690;;;6.0;100.0
68320;BME280;55168;51.120;17.024;2022-12-29T02:51:04;99690;;;6.1;100.0
68320;BME280;55168;51.120;17.024;2022-12-29T02:52:01;99690;;;6.1;100.0
68320;BME280;55168;51.120;17.024;2022-12-29T02:53:01;99700;;;6.1;100.0
68320;BME280;55168;51.120;17.024;2022-12-29T02:54:00;99690;;;6.0;100.0
68320;BME280;55168;51.120;17.024;2022-12-29T02:55:00;99690;;;6.0;100.0
68320;BME280;55168;51.120;17.024;2022-12-29T02:56:00;99690;;;6.0;100.0
68320;BME280;55168;51.120;17.024;2022-12-29T02:57:00;99690;;;5.9;100.0
68320;BME280;55168;51.120;17.024;2022-12-29T02:59:00;99690;;;5.9;100.0
68320;BME280;55168;51.120;17.024;2022-12-29T03:00:02;99690;;;5.9;100.0
68320;BME280;55168;51.120;17.024;2022-12-29T03:03:17;99690;;;5.8;100.0
68320;BME280;55168;51.120;17.024;2022-12-29T03:06:06;99700;;;5.8;100.0
68320;BME280;55168;51.120;17.024;2022-12-29T03:07:04;99690;;;5.8;100.0
68320;BME280;55168;51.120;17.024;2022-12-29T03:09:03;99690;;;5.8;100.0
68320;BME280;55168;51.120;17.024;2022-12-29T03:10:01;99690;;;5.8;100.0
68320;BME280;55168;51.120;17.024;2022-12-29T03:12:07;99680;;;5.8;100.0
68320;BME280;55168;51.120;17.024;2022-12-29T03:13:11;99680;;;5.8;100.0
68320;BME280;55168;51.120;17.024;2022-12-29T03:14:02;99690;;;5.8;100.0
68320;BME280;55168;51.120;17.024;2022-12-29T03:15:02;99690;;;5.8;100.0
68320;BME280;55168;51.120;17.024;2022-12-29T03:16:04;99690;;;5.8;100.0
68320;BME280;55168;51.120;17.024;2022-12-29T03:17:01;99690;;;5.8;100.0
68320;BME280;55168;51.120;17.024;2022-12-29T03:18:15;99690;;;5.8;100.0
68320;BME280;55168;51.120;17.024;2022-12-29T03:20:01;99690;;;5.8;100.0
68320;BME280;55168;51.120;17.024;2022-12-29T03:21:02;99680;;;5.8;100.0
68320;BME280;55168;51.120;17.024;2022-12-29T03:22:02;99690;;;5.8;100.0
68320;BME280;55168;51.120;17.024;2022-12-29T03:23:00;99680;;;5.8;100.0
68320;BME280;55168;51.120;17.024;2022-12-29T03:24:00;99680;;;5.8;100.0
68320;BME280;55168;51.120;17.024;2022-12-29T03:25:03;99680;;;5.8;100.0
68320;BME280;55168;51.120;17.024;2022-12-29T03:26:01;99680;;;5.8;100.0
68320;BME280;55168;51.120;17.024;2022-12-29T03:27:00;99680;;;5.8;100.0
68320;BME280;55168;51.120;17.024;2022-12-29T03:28:01;99680;;;5.8;100.0
68320;BME280;55168;51.120;17.024;2022-12-29T03:29:00;99680;;;5.8;100.0
68320;BME280;55168;51.120;17.024;2022-12-29T03:30:01;99690;;;5.8;100.0
68320;BME280;55168;51.120;17.024;2022-12-29T03:31:00;99700;;;5.8;100.0
68320;BME280;55168;51.120;17.024;2022-12-29T03:32:00;99700;;;5.8;100.0
68320;BME280;55168;51.120;17.024;2022-12-29T03:33:01;99690;;;5.8;100.0
68320;BME280;55168;51.120;17.024;2022-12-29T03:34:00;99700;;;5.8;100.0
68320;BME280;55168;51.120;17.024;2022-12-29T03:35:00;99700;;;5.8;100.0
68320;BME280;55168;51.120;17.024;2022-12-29T03:36:01;99710;;;5.8;100.0
68320;BME280;55168;51.120;17.024;2022-12-29T03:37:02;99710;;;5.8;100.0
68320;BME280;55168;51.120;17.024;2022-12-29T03:39:02;99700;;;5.7;100.0
68320;BME280;55168;51.120;17.024;2022-12-29T03:40:00;99700;;;5.7;100.0
68320;BME280;55168;51.120;17.024;2022-12-29T03:41:00;99700;;;5.7;100.0
68320;BME280;55168;51.120;17.024;2022-12-29T03:42:01;99700;;;5.7;100.0
68320;BME280;55168;51.120;17.024;2022-12-29T03:43:01;99700;;;5.6;100.0
68320;BME280;55168;51.120;17.024;2022-12-29T03:44:00;99700;;;5.6;100.0
68320;BME280;55168;51.120;17.024;2022-12-29T03:45:00;99700;;;5.6;100.0
68320;BME280;55168;51.120;17.024;2022-12-29T03:46:00;99700;;;5.6;100.0
68320;BME280;55168;51.120;17.024;2022-12-29T03:47:00;99690;;;5.6;100.0
68320;BME280;55168;51.120;17.024;2022-12-29T03:48:00;99690;;;5.6;100.0
68320;BME280;55168;51.120;17.024;2022-12-29T03:49:00;99700;;;5.6;100.0
68320;BME280;55168;51.120;17.024;2022-12-29T03:50:00;99690;;;5.6;100.0
68320;BME280;55168;51.120;17.024;2022-12-29T03:51:00;99690;;;5.6;100.0
68320;BME280;55168;51.120;17.024;2022-12-29T03:52:00;99690;;;5.6;100.0
68320;BME280;55168;51.120;17.024;2022-12-29T03:53:00;99690;;;5.6;100.0
68320;BME280;55168;51.120;17.024;2022-12-29T03:54:00;99690;;;5.6;100.0
68320;BME280;55168;51.120;17.024;2022-12-29T03:55:00;99690;;;5.6;100.0
68320;BME280;55168;51.120;17.024;2022-12-29T03:56:00;99690;;;5.6;100.0
68320;BME280;55168;51.120;17.024;2022-12-29T03:57:00;99690;;;5.6;100.0
68320;BME280;55168;51.120;17.024;2022-12-29T03:58:00;99690;;;5.6;100.0
68320;BME280;55168;51.120;17.024;2022-12-29T03:59:00;99690;;;5.6;100.0
68320;BME280;55168;51.120;17.024;2022-12-29T04:00:00;99700;;;5.6;100.0
68320;BME280;55168;51.120;17.024;2022-12-29T04:01:00;99700;;;5.6;100.0
68320;BME280;55168;51.120;17.024;2022-12-29T04:02:00;99690;;;5.6;100.0
68320;BME280;55168;51.120;17.024;2022-12-29T04:03:00;99690;;;5.6;100.0
68320;BME280;55168;51.120;17.024;2022-12-29T04:04:00;99690;;;5.6;100.0
68320;BME280;55168;51.120;17.024;2022-12-29T04:05:00;99700;;;5.6;100.0
68320;BME280;55168;51.120;17.024;2022-12-29T04:06:00;99700;;;5.6;100.0
68320;BME280;55168;51.120;17.024;2022-12-29T04:07:00;99700;;;5.6;100.0
68320;BME280;55168;51.120;17.024;2022-12-29T04:08:00;99690;;;5.6;100.0
68320;BME280;55168;51.120;17.024;2022-12-29T04:09:00;99680;;;5.6;100.0
68320;BME280;55168;51.120;17.024;2022-12-29T04:10:00;99690;;;5.6;100.0
68320;BME280;55168;51.120;17.024;2022-12-29T04:11:00;99690;;;5.6;100.0
68320;BME280;55168;51.120;17.024;2022-12-29T04:12:00;99680;;;5.6;100.0
68320;BME280;55168;51.120;17.024;2022-12-29T04:13:00;99670;;;5.6;100.0
68320;BME280;55168;51.120;17.024;2022-12-29T04:14:00;99680;;;5.6;100.0
68320;BME280;55168;51.120;17.024;2022-12-29T04:15:00;99680;;;5.6;100.0
68320;BME280;55168;51.120;17.024;2022-12-29T04:16:00;99670;;;5.6;100.0
68320;BME280;55168;51.120;17.024;2022-12-29T04:17:00;99670;;;5.6;100.0
68320;BME280;55168;51.120;17.024;2022-12-29T04:18:00;99670;;;5.6;100.0
68320;BME280;55168;51.120;17.024;2022-12-29T04:19:00;99660;;;5.7;100.0
68320;BME280;55168;51.120;17.024;2022-12-29T04:20:00;99660;;;5.7;100.0
68320;BME280;55168;51.120;17.024;2022-12-29T04:21:00;99660;;;5.7;100.0
68320;BME280;55168;51.120;17.024;2022-12-29T04:22:00;99660;;;5.7;100.0
68320;BME280;55168;51.120;17.024;2022-12-29T04:23:00;99660;;;5.7;100.0
68320;BME280;55168;51.120;17.024;2022-12-29T04:24:00;99650;;;5.7;100.0
68320;BME280;55168;51.120;17.024;2022-12-29T04:25:00;99660;;;5.7;100.0
68320;BME280;55168;51.120;17.024;2022-12-29T04:26:00;99660;;;5.7;100.0
68320;BME280;55168;51.120;17.024;2022-12-29T04:27:00;99660;;;5.7;100.0
68320;BME280;55168;51.120;17.024;2022-12-29T04:28:00;99660;;;5.7;100.0
68320;BME280;55168;51.120;17.024;2022-12-29T04:29:00;99650;;;5.7;100.0
68320;BME280;55168;51.120;17.024;2022-12-29T04:30:00;99660;;;5.7;100.0
68320;BME280;55168;51.120;17.024;2022-12-29T04:31:00;99650;;;5.7;100.0
68320;BME280;55168;51.120;17.024;2022-12-29T04:32:00;99650;;;5.7;100.0
68320;BME280;55168;51.120;17.024;2022-12-29T04:33:00;99650;;;5.7;100.0
68320;BME280;55168;51.120;17.024;2022-12-29T04:34:00;99650;;;5.7;100.0
68320;BME280;55168;51.120;17.024;2022-12-29T04:35:00;99650;;;5.7;100.0
68320;BME280;55168;51.120;17.024;2022-12-29T04:36:00;99650;;;5.7;100.0
68320;BME280;55168;51.120;17.024;2022-12-29T04:37:00;99650;;;5.8;100.0
68320;BME280;55168;51.120;17.024;2022-12-29T04:38:00;99650;;;5.8;100.0
68320;BME280;55168;51.120;17.024;2022-12-29T04:39:00;99650;;;5.8;100.0
68320;BME280;55168;51.120;17.024;2022-12-29T04:40:00;99650;;;5.8;100.0
68320;BME280;55168;51.120;17.024;2022-12-29T04:41:00;99650;;;5.8;100.0
68320;BME280;55168;51.120;17.024;2022-12-29T04:42:00;99650;;;5.8;100.0
68320;BME280;55168;51.120;17.024;2022-12-29T04:43:00;99640;;;5.8;100.0
68320;BME280;55168;51.120;17.024;2022-12-29T04:44:00;99640;;;5.8;100.0
68320;BME280;55168;51.120;17.024;2022-12-29T04:45:00;99650;;;5.8;100.0
68320;BME280;55168;51.120;17.024;2022-12-29T04:46:00;99640;;;5.8;100.0
68320;BME280;55168;51.120;17.024;2022-12-29T04:47:00;99640;;;5.9;100.0
68320;BME280;55168;51.120;17.024;2022-12-29T04:48:00;99640;;;5.9;100.0
68320;BME280;55168;51.120;17.024;2022-12-29T04:49:00;99640;;;5.9;100.0
68320;BME280;55168;51.120;17.024;2022-12-29T04:50:00;99640;;;5.9;100.0
68320;BME280;55168;51.120;17.024;2022-12-29T04:51:00;99650;;;5.9;100.0
68320;BME280;55168;51.120;17.024;2022-12-29T04:52:00;99640;;;5.9;100.0
68320;BME280;55168;51.120;17.024;2022-12-29T04:53:00;99640;;;5.9;100.0
68320;BME280;55168;51.120;17.024;2022-12-29T04:54:00;99640;;;5.9;100.0
68320;BME280;55168;51.120;17.024;2022-12-29T04:55:00;99640;;;5.9;100.0
68320;BME280;55168;51.120;17.024;2022-12-29T04:56:00;99650;;;5.9;100.0
68320;BME280;55168;51.120;17.024;2022-12-29T04:57:00;99650;;;6.0;100.0
68320;BME280;55168;51.120;17.024;2022-12-29T04:58:00;99640;;;6.0;100.0
68320;BME280;55168;51.120;17.024;2022-12-29T04:59:00;99640;;;6.0;100.0
68320;BME280;55168;51.120;17.024;2022-12-29T05:00:00;99640;;;6.0;100.0
68320;BME280;55168;51.120;17.024;2022-12-29T05:01:00;99640;;;6.0;100.0
68320;BME280;55168;51.120;17.024;2022-12-29T05:02:00;99640;;;6.0;100.0
68320;BME280;55168;51.120;17.024;2022-12-29T05:03:00;99640;;;6.0;100.0
68320;BME280;55168;51.120;17.024;2022-12-29T05:04:00;99640;;;6.0;100.0
68320;BME280;55168;51.120;17.024;2022-12-29T05:05:00;99630;;;6.1;100.0
68320;BME280;55168;51.120;17.024;2022-12-29T05:06:00;99640;;;6.1;100.0
68320;BME280;55168;51.120;17.024;2022-12-29T05:07:00;99640;;;6.1;100.0
68320;BME280;55168;51.120;17.024;2022-12-29T05:08:00;99640;;;6.1;100.0
68320;BME280;55168;51.120;17.024;2022-12-29T05:09:00;99630;;;6.1;100.0
68320;BME280;55168;51.120;17.024;2022-12-29T05:10:00;99630;;;6.1;100.0
68320;BME280;55168;51.120;17.024;2022-12-29T05:11:00;99630;;;6.1;100.0
68320;BME280;55168;51.120;17.024;2022-12-29T05:12:00;99630;;;6.1;100.0
68320;BME280;55168;51.120;17.024;2022-12-29T05:13:00;99630;;;6.1;100.0
68320;BME280;55168;51.120;17.024;2022-12-29T05:14:00;99630;;;6.1;100.0
68320;BME280;55168;51.120;17.024;2022-12-29T05:15:00;99630;;;6.1;100.0
68320;BME280;55168;51.120;17.024;2022-12-29T05:16:00;99630;;;6.1;100.0
68320;BME280;55168;51.120;17.024;2022-12-29T05:17:00;99620;;;6.1;100.0
68320;BME280;55168;51.120;17.024;2022-12-29T05:18:00;99620;;;6.1;100.0
68320;BME280;55168;51.120;17.024;2022-12-29T05:19:00;99620;;;6.1;100.0
68320;BME280;55168;51.120;17.024;2022-12-29T05:20:00;99620;;;6.1;100.0
68320;BME280;55168;51.120;17.024;2022-12-29T05:21:00;99620;;;6.1;100.0
68320;BME280;55168;51.120;17.024;2022-12-29T05:22:00;99620;;;6.1;100.0
68320;BME280;55168;51.120;17.024;2022-12-29T05:23:00;99620;;;6.1;100.0
68320;BME280;55168;51.120;17.024;2022-12-29T05:24:00;99620;;;6.1;100.0
68320;BME280;55168;51.120;17.024;2022-12-29T05:25:00;99620;;;6.1;100.0
68320;BME280;55168;51.120;17.024;2022-12-29T05:26:00;99620;;;6.1;100.0
68320;BME280;55168;51.120;17.024;2022-12-29T05:27:00;99620;;;6.1;100.0
68320;BME280;55168;51.120;17.024;2022-12-29T05:28:00;99620;;;6.1;100.0
68320;BME280;55168;51.120;17.024;2022-12-29T05:29:00;99610;;;6.1;100.0
68320;BME280;55168;51.120;17.024;2022-12-29T05:30:00;99610;;;6.1;100.0
68320;BME280;55168;51.120;17.024;2022-12-29T05:31:00;99610;;;6.1;100.0
68320;BME280;55168;51.120;17.024;2022-12-29T05:32:00;99610;;;6.0;100.0
68320;BME280;55168;51.120;17.024;2022-12-29T05:32:59;99610;;;6.0;100.0
68320;BME280;55168;51.120;17.024;2022-12-29T05:33:59;99610;;;6.0;100.0
68320;BME280;55168;51.120;17.024;2022-12-29T05:35:00;99600;;;6.0;100.0
68320;BME280;55168;51.120;17.024;2022-12-29T05:36:05;99610;;;6.0;100.0
68320;BME280;55168;51.120;17.024;2022-12-29T05:36:59;99600;;;6.0;100.0
68320;BME280;55168;51.120;17.024;2022-12-29T05:37:59;99600;;;6.0;100.0
68320;BME280;55168;51.120;17.024;2022-12-29T05:38:59;99600;;;6.0;100.0
68320;BME280;55168;51.120;17.024;2022-12-29T05:39:59;99600;;;6.0;100.0
68320;BME280;55168;51.120;17.024;2022-12-29T05:41:00;99600;;;6.0;100.0
68320;BME280;55168;51.120;17.024;2022-12-29T05:41:59;99600;;;6.0;100.0
68320;BME280;55168;51.120;17.024;2022-12-29T05:42:59;99600;;;6.0;100.0
68320;BME280;55168;51.120;17.024;2022-12-29T05:44:00;99600;;;6.0;100.0
68320;BME280;55168;51.120;17.024;2022-12-29T05:44:59;99600;;;6.0;100.0
68320;BME280;55168;51.120;17.024;2022-12-29T05:46:00;99590;;;5.9;100.0
68320;BME280;55168;51.120;17.024;2022-12-29T05:46:59;99590;;;5.9;100.0
68320;BME280;55168;51.120;17.024;2022-12-29T05:47:59;99600;;;5.9;100.0
68320;BME280;55168;51.120;17.024;2022-12-29T05:48:59;99600;;;5.9;100.0
68320;BME280;55168;51.120;17.024;2022-12-29T05:50:00;99600;;;5.9;100.0
68320;BME280;55168;51.120;17.024;2022-12-29T05:50:59;99600;;;5.9;100.0
68320;BME280;55168;51.120;17.024;2022-12-29T05:51:59;99600;;;5.9;100.0
68320;BME280;55168;51.120;17.024;2022-12-29T05:52:59;99600;;;5.9;100.0
68320;BME280;55168;51.120;17.024;2022-12-29T05:53:59;99590;;;5.9;100.0
68320;BME280;55168;51.120;17.024;2022-12-29T05:54:59;99600;;;5.9;100.0
68320;BME280;55168;51.120;17.024;2022-12-29T05:55:59;99590;;;6.0;100.0
68320;BME280;55168;51.120;17.024;2022-12-29T05:56:59;99600;;;6.0;100.0
68320;BME280;55168;51.120;17.024;2022-12-29T05:57:59;99610;;;5.9;100.0
68320;BME280;55168;51.120;17.024;2022-12-29T05:58:59;99600;;;6.0;100.0
68320;BME280;55168;51.120;17.024;2022-12-29T05:59:59;99600;;;6.0;100.0
68320;BME280;55168;51.120;17.024;2022-12-29T06:01:00;99600;;;6.0;100.0